Terminal Aerodrome Forecast
Issued by NWS Mt. Holly, NJ

Current Version | Previous Version | Text Only | Print | Product List | Glossary On
Versions: 1 2 3 4 5 6 7 8 9 10 11 12 13 14 15 16
873
FTUS41 KPHI 262321
TAFACY
TAF
KACY 262321Z 2700/2724 17010KT P6SM SCT030 OVC045
     FM270600 20008KT 6SM -SHRA FEW008 OVC015
      TEMPO 2709/2713 26012KT 3SM SHRA OVC008
     FM271500 28008KT P6SM -SHRA OVC020
     FM271900 28005KT P6SM OVC030
     FM272200 20005KT P6SM BKN040=

USA.gov is the U.S. government's official web portal to all federal, state and local government web resources and services.